Terminal Aerodrome Forecast
Issued by NWS

Home | Current Version | Previous Version | Graphics & Text | Print | Product List | Glossary On
Versions: 1 2 3 4 5 6 7 8 9 10 11 12 13 14 15 16 17 18 19 20 21 22 23
000
FTUS43 KICT 192339
TAFHUT
TAF
KHUT 192339Z 2000/2024 21004KT 5SM BR SCT010 BKN015
     FM200300 19005KT 3SM BR BKN007
     FM200800 19005KT 2SM BR BKN005
     FM201600 19009KT 5SM BR BKN025
     FM201800 20009KT P6SM SCT050 SCT250=

USA.gov is the U.S. government's official web portal to all federal, state and local government web resources and services.